TAF ETEB 300700Z 3007/0113 VRB06KT 0800 FG OVC000 QNH2984INS
From batch tds/tafs/production/2022/9/30/h06_m59_tafs.cache.xml
Issued (8 minutes ago)
Forecasts TAF ETEB 300700Z 3007/0113 VRB06KT 0800 FG OVC000 QNH2984INS
BECMG 3010/3011 VRB06KT 9999 NSW FEW020 SCT100 QNH2984INS
BECMG 0106/0107 20009KT 9999 BKN180 510002 QNH2988INS
BECMG 0111/0112 23010G15KT 5000 -SHRA BKN008 OVC020 510002 QNH2986INS TX13/3013Z TN05/3007Z
TAF KGUR 300700Z 3007/0113 VRB06KT 9999 FEW095 SCT130 QNH2998INS
From batch tds/tafs/production/2022/9/30/h06_m59_tafs.cache.xml
Issued (8 minutes ago)
Forecasts TAF KGUR 300700Z 3007/0113 VRB06KT 9999 FEW095 SCT130 QNH2998INS
BECMG 3012/3013 VRB06KT 9000 -SHRA FEW065 BKN095 OVC130 QNH3000INS
BECMG 3014/3015 VRB06KT 9999 NSW FEW065 BKN095 OVC130 QNH2998INS
BECMG 3019/3020 24012G18KT 9999 FEW140 FEW200 QNH2991INS
BECMG 3022/3023 VRB06KT 9000 -SHRA SCT075 SCT120 OVC170 QNH2992INS
BECMG 0108/0109 30009KT 9000 -SHRA SCT013 BKN021 OVC030 QNH3005INS
BECMG 0109/0110 32009KT 9000 -SHRA FEW013 FEW021 BKN030 QNH3004INS
BECMG 0110/0111 33009KT 9000 -SHRA SCT013 BKN021 OVC030 QNH3003INS
BECMG 0111/0112 33009KT 9000 -SHRA FEW005 SCT013 BKN021 QNH3003INS
BECMG 0112/0113 33006KT 8000 -SHRA SCT005 BKN013 OVC021 QNH3005INS TX25/3021Z TN08/3010Z
TAF EGHC 300655Z 3006/3015 22012KT 9999 SCT020
From batch tds/tafs/production/2022/9/30/h06_m59_tafs.cache.xml
Issued (13 minutes ago)
Forecasts TAF EGHC 300655Z 3006/3015 22012KT 9999 SCT020
PROB30
TEMPO 3006/3009 23015G25KT 7000 -RA
TEMPO 3009/3015 23020G40KT 6000 RA BKN014
PROB40
TEMPO 3009/3015 3000 +RA BKN008
TAF AMD ENBN 300654Z 3006/3015 14008KT 9999 FEW050 SCT080
From batch tds/tafs/production/2022/9/30/h06_m59_tafs.cache.xml
Issued (14 minutes ago)
Forecasts TAF AMD ENBN 300654Z 3006/3015 14008KT 9999 FEW050 SCT080
TAF EKVD 300654Z 3007/3015 33003KT 9999 BKN020
From batch tds/tafs/production/2022/9/30/h06_m59_tafs.cache.xml
Issued (14 minutes ago)
Forecasts TAF EKVD 300654Z 3007/3015 33003KT 9999 BKN020
TEMPO 3007/3010 BKN004 SCT020TCU
BECMG 3007/3010 22010KT
TEMPO 3010/3015 BKN012 SCT020TCU
TAF AMD EYKA 300652Z 3006/0106 VRB05KT 9000 SCT005 BKN015
From batch tds/tafs/production/2022/9/30/h06_m59_tafs.cache.xml
Issued (16 minutes ago)
Forecasts TAF AMD EYKA 300652Z 3006/0106 VRB05KT 9000 SCT005 BKN015
TEMPO 3006/3010 BKN010
BECMG 3010/3012 BKN025
TEMPO 3021/0106 3000 BR SCT005
KVQQ 300651Z 3007/0106 33014G21KT P6SM OVC020
From batch tds/tafs/production/2022/9/30/h06_m59_tafs.cache.xml
Issued (17 minutes ago)
Forecasts KVQQ 300651Z 3007/0106 33014G21KT P6SM OVC020
FM301100 31013G22KT P6SM OVC020
FM301800 31012G18KT P6SM SCT030
FM010000 31005KT P6SM SCT030
TAF EDLN 300650Z 3007/3015 VRB02KT CAVOK
From batch tds/tafs/production/2022/9/30/h06_m59_tafs.cache.xml
Issued (18 minutes ago)
Forecasts TAF EDLN 300650Z 3007/3015 VRB02KT CAVOK
BECMG 3009/3012 22007KT
TAF AMD LEST 300649Z 3006/0106 VRB03KT 9999 FEW010 TX17/3014Z TN09/3006Z
From batch tds/tafs/production/2022/9/30/h06_m59_tafs.cache.xml
Issued (19 minutes ago)
Forecasts TAF AMD LEST 300649Z 3006/0106 VRB03KT 9999 FEW010 TX17/3014Z TN09/3006Z
PROB40
TEMPO 3006/3008 3000 BCFG BKN010
PROB30
TEMPO 3006/3008 0350 FG VV001
PROB40
TEMPO 0100/0106 BKN010
KSNA 300646Z 3007/0106 00000KT P6SM OVC012
From batch tds/tafs/production/2022/9/30/h06_m59_tafs.cache.xml
Issued (22 minutes ago)
Forecasts KSNA 300646Z 3007/0106 00000KT P6SM OVC012
FM301800 23008KT P6SM SCT012
FM010300 VRB04KT P6SM OVC010
TAF AMD LFMK 300646Z 3006/0103 28012KT 9999 BKN010 BKN060
From batch tds/tafs/production/2022/9/30/h06_m59_tafs.cache.xml
Issued (22 minutes ago)
Forecasts TAF AMD LFMK 300646Z 3006/0103 28012KT 9999 BKN010 BKN060
TEMPO 3006/3014 SCT050TCU
BECMG 3010/3012 SCT030
TEMPO 3010/3017 29016G26KT
TAF AMD ETNH 300646Z 3006/3014 21005KT 8000 NSW SCT015 BKN025
From batch tds/tafs/production/2022/9/30/h06_m59_tafs.cache.xml
Issued (22 minutes ago)
Forecasts TAF AMD ETNH 300646Z 3006/3014 21005KT 8000 NSW SCT015 BKN025
TEMPO 3006/3007 VRB03KT 2000 BR BKN001
TEMPO 3007/3008 20003KT 3000 BR BKN005 BY ETGL
TAF AMD LFRN 300646Z 3006/0106 VRB03KT 3000 BR NSC
From batch tds/tafs/production/2022/9/30/h06_m59_tafs.cache.xml
Issued (22 minutes ago)
Forecasts TAF AMD LFRN 300646Z 3006/0106 VRB03KT 3000 BR NSC
TEMPO 3006/3008 0800 FG
BECMG 3007/3009 8000 NSW
BECMG 3010/3012 22010KT
BECMG 3018/3020 OVC012
TEMPO 3020/0106 21015G25KT 4000 RA BKN005
TAF AMD ULPB 300646Z 3006/3015 18003G08MPS 6000 BKN006
From batch tds/tafs/production/2022/9/30/h06_m59_tafs.cache.xml
Issued (22 minutes ago)
Forecasts TAF AMD ULPB 300646Z 3006/3015 18003G08MPS 6000 BKN006
BECMG 3009/3010 BKN011
TAF ETSH 300645Z 3005/3014 VRB02KT 4000 BCFG BKN100
From batch tds/tafs/production/2022/9/30/h04_m56_tafs.cache.xml
Issued (23 minutes ago)
Forecasts TAF ETSH 300645Z 3005/3014 VRB02KT 4000 BCFG BKN100
TEMPO 3005/3008 00000KT 0500 FG BKN004 SCT100
BECMG 3007/3009 17005KT 9999 NSW SCT030
TAF AMD ENSB 3006/0106 11006KT 9999 BKN004
From batch tds/tafs/production/2022/9/30/h06_m59_tafs.cache.xml
Issued (23 minutes ago)
Forecasts TAF AMD ENSB 3006/0106 11006KT 9999 BKN004
TEMPO 3006/3007 0500 FG VV002
BECMG 3014/3016 FEW004 SCT018
TAF AMD EGVA 300645Z 3006/0110 VRB06KT 0400 FG VV000 QNH2977INS
From batch tds/tafs/production/2022/9/30/h06_m59_tafs.cache.xml
Issued (23 minutes ago)
Forecasts TAF AMD EGVA 300645Z 3006/0110 VRB06KT 0400 FG VV000 QNH2977INS
BECMG 3009/3010 19012KT 9999 NSW BKN020 QNH2974INS
BECMG 3011/3012 20020G30KT 9999 SCT020 BKN040 510003 QNH2970INS
TEMPO 3017/3020 20025G35KT 8000 -RA
BECMG 3021/3022 25012KT 8000 BR OVC005 QNH2947INS
BECMG 0109/0110 25015G20KT 9999 NSW FEW030 FEW040 SCT055 510005 QNH2970INS TX15/3020Z TN08/3006Z
TAF AMD EBFS 300645Z 3007/3016 VRB02KT 2000 BR SKC
From batch tds/tafs/production/2022/9/30/h06_m59_tafs.cache.xml
Issued (23 minutes ago)
Forecasts TAF AMD EBFS 300645Z 3007/3016 VRB02KT 2000 BR SKC
TEMPO 3007/3008 0500 FG
BECMG 3009/3011 22005KT 6000 NSW FEW010 SCT020 BKN030
BECMG 3012/3014 21012KT 9999 SCT030 SCT040
TAF AMD WMKI 300645Z 3006/0106 27007KT 9999 SCT020
From batch tds/tafs/production/2022/9/30/h06_m59_tafs.cache.xml
Issued (23 minutes ago)
Forecasts TAF AMD WMKI 300645Z 3006/0106 27007KT 9999 SCT020
TEMPO 3006/3011 4000 TSRA FEW017CB
BECMG 3011/3013 04005KT 8000 FEW027
TAF AMD EGLL 300644Z 3006/0112 21002KT 0300 FG VV///
From batch tds/tafs/production/2022/9/30/h06_m59_tafs.cache.xml
Issued (24 minutes ago)
Forecasts TAF AMD EGLL 300644Z 3006/0112 21002KT 0300 FG VV///
BECMG 3007/3010 21012KT 9999 NSW FEW005
BECMG 3014/3017 21015G29KT
TEMPO 3014/3021 6000 RA BKN012
PROB30
TEMPO 3016/3021 3000 +RA BKN008
BECMG 3020/3022 25008KT
PROB30
TEMPO 3021/3022 BKN008
TAF EGUB 300644Z 3007/3015 20004KT 0100 FG VV///
From batch tds/tafs/production/2022/9/30/h06_m59_tafs.cache.xml
Issued (24 minutes ago)
Forecasts TAF EGUB 300644Z 3007/3015 20004KT 0100 FG VV///
BECMG 3007/3009 9999 NSW SCT006
BECMG 3009/3011 FEW012
TEMPO 3011/3015 6000 RA BKN020
BECMG 3012/3015 21017G30KT
PROB30
TEMPO 3013/3015 4000 +RA SCT012
TAF AMD CYXS 300643Z 3007/3019 VRB03KT 3/4SM BR FEW002
From batch tds/tafs/production/2022/9/30/h06_m59_tafs.cache.xml
Issued (25 minutes ago)
Forecasts TAF AMD CYXS 300643Z 3007/3019 VRB03KT 3/4SM BR FEW002
TEMPO 3007/3016 6SM BR
PROB40 3007/3016 1/2SM FG VV002
FM301600 VRB03KT P6SM SKC RMK FCST BASED ON AUTO OBS. NXT FCST BY 301300Z
TAF AMD RJSK 300642Z 3006/0112 14004KT 9999 FEW030
From batch tds/tafs/production/2022/9/30/h06_m59_tafs.cache.xml
Issued (26 minutes ago)
Forecasts TAF AMD RJSK 300642Z 3006/0112 14004KT 9999 FEW030
BECMG 0100/0103 30008KT
BECMG 0109/0112 14004KT
TAF AMD DAAV 300641Z 3006/0106 26008KT 9999 FEW020
From batch tds/tafs/production/2022/9/30/h06_m59_tafs.cache.xml
Issued (27 minutes ago)
Forecasts TAF AMD DAAV 300641Z 3006/0106 26008KT 9999 FEW020
TEMPO 3006/3010 FEW023TCU
BECMG 3008/3010 33014KT
PROB30 3016/3024 FEW026TCU BKN030
BECMG 3019/3021 06008KT
TAF CYIO 300640Z 3007/3019 VRB03KT P6SM FEW040 SCT150 RMK FCST BASED ON AUTO OBS. NXT FCST BY 301300Z
From batch tds/tafs/production/2022/9/30/h06_m59_tafs.cache.xml
Issued (28 minutes ago)
Forecasts TAF CYIO 300640Z 3007/3019 VRB03KT P6SM FEW040 SCT150 RMK FCST BASED ON AUTO OBS. NXT FCST BY 301300Z
TAF CYPR 300640Z 3007/3019 14005KT P6SM -RA SCT015 OVC040
From batch tds/tafs/production/2022/9/30/h06_m59_tafs.cache.xml
Issued (28 minutes ago)
Forecasts TAF CYPR 300640Z 3007/3019 14005KT P6SM -RA SCT015 OVC040
TEMPO 3007/3009 2 1/2SM -RA BR OVC012
FM300900 12006KT P6SM SCT006 OVC030
TEMPO 3009/3019 2SM -RA BR OVC006 RMK FCST BASED ON AUTO OBS. NXT FCST BY 301300Z
TAF CYUX 300640Z 3007/3019 01022G32KT P6SM FEW020 BKN060
From batch tds/tafs/production/2022/9/30/h06_m59_tafs.cache.xml
Issued (28 minutes ago)
Forecasts TAF CYUX 300640Z 3007/3019 01022G32KT P6SM FEW020 BKN060
TEMPO 3007/3015 3SM -SN BKN015 OVC050
BECMG 3013/3015 34022KT
FM301500 34022KT P6SM FEW008 BKN020
TEMPO 3015/3019 2SM -SN BLSN OVC008 RMK FCST BASED ON AUTO OBS. NXT FCST BY 301300Z
TAF CYVC 300640Z 3007/3019 07008KT P6SM SCT030 BKN150
From batch tds/tafs/production/2022/9/30/h06_m59_tafs.cache.xml
Issued (28 minutes ago)
Forecasts TAF CYVC 300640Z 3007/3019 07008KT P6SM SCT030 BKN150
TEMPO 3007/3014 BKN030 OVC100
FM301400 08008KT P6SM SCT020 OVC040
TEMPO 3014/3019 P6SM -SHRA BKN020 OVC040 RMK NXT FCST BY 301300Z
TAF CYQD 300640Z 3007/3019 07008KT P6SM SCT220
From batch tds/tafs/production/2022/9/30/h06_m59_tafs.cache.xml
Issued (28 minutes ago)
Forecasts TAF CYQD 300640Z 3007/3019 07008KT P6SM SCT220
BECMG 3015/3017 BKN060 OVC160 RMK FCST BASED ON AUTO OBS. NXT FCST BY 301300Z
TAF CYCO 300640Z 3007/3019 15007KT P6SM SKC
From batch tds/tafs/production/2022/9/30/h06_m59_tafs.cache.xml
Issued (28 minutes ago)
Forecasts TAF CYCO 300640Z 3007/3019 15007KT P6SM SKC
FM301100 18008KT P6SM SCT060
TEMPO 3011/3017 BKN060
BECMG 3017/3019 19015KT RMK NXT FCST BY 301300Z
TAF CYZH 300640Z 3007/3019 VRB03KT P6SM BKN090
From batch tds/tafs/production/2022/9/30/h06_m59_tafs.cache.xml
Issued (28 minutes ago)
Forecasts TAF CYZH 300640Z 3007/3019 VRB03KT P6SM BKN090
TEMPO 3007/3010 P6SM -SHRA
FM301200 12006KT P6SM SCT020 BKN080
FM301600 12010KT P6SM BKN060
TEMPO 3016/3019 SCT060 RMK FCST BASED ON AUTO OBS. NXT FCST BY 301300Z
TAF CYZY 300640Z 3007/3009 VRB03KT P6SM SKC RMK FCST BASED ON AUTO OBS. NXT FCST BY 301500Z
From batch tds/tafs/production/2022/9/30/h06_m59_tafs.cache.xml
Issued (28 minutes ago)
Forecasts TAF CYZY 300640Z 3007/3009 VRB03KT P6SM SKC RMK FCST BASED ON AUTO OBS. NXT FCST BY 301500Z
TAF AMD KGTB 300640Z 3006/0107 VRB06KT 9999 SKC QNH3042INS
From batch tds/tafs/production/2022/9/30/h06_m59_tafs.cache.xml
Issued (28 minutes ago)
Forecasts TAF AMD KGTB 300640Z 3006/0107 VRB06KT 9999 SKC QNH3042INS
TEMPO 3006/3010 VRB04KT 3200 BR SKC TX14/3018Z TN05/3007Z
TAF CYXT 300640Z 3007/3019 VRB03KT P6SM FEW012 SCT060 OVC200
From batch tds/tafs/production/2022/9/30/h06_m59_tafs.cache.xml
Issued (28 minutes ago)
Forecasts TAF CYXT 300640Z 3007/3019 VRB03KT P6SM FEW012 SCT060 OVC200
TEMPO 3007/3009 5SM -RA BR BKN012
FM300900 17010KT 4SM BR SCT003 BKN060
TEMPO 3009/3019 3SM -RA BR BKN003 RMK NXT FCST BY 301300Z
TAF CYNE 300640Z 3007/3019 03005KT P6SM SCT220
From batch tds/tafs/production/2022/9/30/h06_m59_tafs.cache.xml
Issued (28 minutes ago)
Forecasts TAF CYNE 300640Z 3007/3019 03005KT P6SM SCT220
BECMG 3015/3017 05010KT RMK FCST BASED ON AUTO OBS. NXT FCST BY 301300Z
TAF CYWL 300640Z 3007/3019 VRB03KT P6SM SKC
From batch tds/tafs/production/2022/9/30/h06_m59_tafs.cache.xml
Issued (28 minutes ago)
Forecasts TAF CYWL 300640Z 3007/3019 VRB03KT P6SM SKC
FM301000 VRB03KT P6SM SKC
TEMPO 3010/3019 3SM BR BKN006
PROB30 3010/3019 1/2SM FG OVC002 RMK NXT FCST BY 301300Z
TAF CYGX 300640Z 3007/3019 03010KT P6SM SKC
From batch tds/tafs/production/2022/9/30/h06_m59_tafs.cache.xml
Issued (28 minutes ago)
Forecasts TAF CYGX 300640Z 3007/3019 03010KT P6SM SKC
BECMG 3014/3016 34008KT RMK NXT FCST BY 301300Z
TAF CYCB 300640Z 3007/3019 29005KT P6SM BKN015
From batch tds/tafs/production/2022/9/30/h06_m59_tafs.cache.xml
Issued (28 minutes ago)
Forecasts TAF CYCB 300640Z 3007/3019 29005KT P6SM BKN015
TEMPO 3007/3015 5SM BR OVC008
BECMG 3011/3013 12008KT
FM301500 12012G22KT P6SM SCT015
TEMPO 3015/3019 BKN015
BECMG 3016/3018 15015G25KT RMK NXT FCST BY 301300Z
TAF CYOJ 300640Z 3007/3019 13008KT P6SM SCT120
From batch tds/tafs/production/2022/9/30/h06_m59_tafs.cache.xml
Issued (28 minutes ago)
Forecasts TAF CYOJ 300640Z 3007/3019 13008KT P6SM SCT120
PROB30 3009/3014 1SM BR BKN002
FM301400 13006KT P6SM SCT015
TEMPO 3014/3019 BKN015 RMK FCST BASED ON AUTO OBS. NXT FCST BY 301300Z
TAF CYXC 300640Z 3007/3019 VRB03KT P6SM SCT015 BKN060
From batch tds/tafs/production/2022/9/30/h06_m59_tafs.cache.xml
Issued (28 minutes ago)
Forecasts TAF CYXC 300640Z 3007/3019 VRB03KT P6SM SCT015 BKN060
TEMPO 3007/3009 P6SM -SHRA BKN015
FM300900 27006KT P6SM SCT004 BKN040
TEMPO 3009/3018 2SM BR BKN004
FM301800 VRB03KT P6SM SCT020 BKN100 RMK NXT FCST BY 301300Z
TAF CYZS 300640Z 3007/3019 33030G40KT P6SM FEW050 SCT120
From batch tds/tafs/production/2022/9/30/h06_m59_tafs.cache.xml
Issued (28 minutes ago)
Forecasts TAF CYZS 300640Z 3007/3019 33030G40KT P6SM FEW050 SCT120
TEMPO 3007/3019 3SM -SN BLSN BKN020 OVC040
PROB30 3007/3019 1SM -SN BLSN VV010 RMK NXT FCST BY 301300Z
TAF CYPA 300640Z 3007/3019 08012KT P6SM SCT120 OVC200
From batch tds/tafs/production/2022/9/30/h06_m59_tafs.cache.xml
Issued (28 minutes ago)
Forecasts TAF CYPA 300640Z 3007/3019 08012KT P6SM SCT120 OVC200
TEMPO 3007/3014 BKN120 OVC200 RMK NXT FCST BY 301300Z
TAF CYZT 300640Z 3007/3019 VRB03KT P6SM FEW012 SCT030
From batch tds/tafs/production/2022/9/30/h06_m59_tafs.cache.xml
Issued (28 minutes ago)
Forecasts TAF CYZT 300640Z 3007/3019 VRB03KT P6SM FEW012 SCT030
TEMPO 3007/3008 SCT006 BKN012
FM300800 VRB03KT P6SM SCT002 BKN012
TEMPO 3008/3019 1SM BR BKN002 RMK NXT FCST BY 301300Z
TAF CYLW 300640Z 3007/3019 VRB03KT P6SM FEW080
From batch tds/tafs/production/2022/9/30/h06_m59_tafs.cache.xml
Issued (28 minutes ago)
Forecasts TAF CYLW 300640Z 3007/3019 VRB03KT P6SM FEW080
FM301500 VRB03KT P6SM SCT060 RMK FCST BASED ON AUTO OBS. NXT FCST BY 301300Z
TAF CYIV 300640Z 3007/3019 03005KT P6SM SKC
From batch tds/tafs/production/2022/9/30/h06_m59_tafs.cache.xml
Issued (28 minutes ago)
Forecasts TAF CYIV 300640Z 3007/3019 03005KT P6SM SKC
BECMG 3014/3016 06012KT RMK FCST BASED ON AUTO OBS. NXT FCST BY 301300Z
TAF CYXJ 300640Z 3007/3019 11008KT 6SM BR SKC
From batch tds/tafs/production/2022/9/30/h06_m59_tafs.cache.xml
Issued (28 minutes ago)
Forecasts TAF CYXJ 300640Z 3007/3019 11008KT 6SM BR SKC
TEMPO 3007/3010 1/2SM FG VV005
FM301000 14008KT 1/4SM FG VV001
TEMPO 3010/3014 3SM BR FEW001
BECMG 3014/3016 P6SM NSW SCT020
FM301600 20010KT P6SM SCT020 RMK NXT FCST BY 301300Z
TAF CYKA 300640Z 3007/3019 27008KT P6SM SCT090 RMK NXT FCST BY 301300Z
From batch tds/tafs/production/2022/9/30/h06_m59_tafs.cache.xml
Issued (28 minutes ago)
Forecasts TAF CYKA 300640Z 3007/3019 27008KT P6SM SCT090 RMK NXT FCST BY 301300Z
TAF CYYE 300640Z 3007/3019 VRB03KT P6SM SKC
From batch tds/tafs/production/2022/9/30/h06_m59_tafs.cache.xml
Issued (28 minutes ago)
Forecasts TAF CYYE 300640Z 3007/3019 VRB03KT P6SM SKC
PROB30 3010/3015 1SM BR RMK NXT FCST BY 301300Z
TAF CYYF 300640Z 3007/3019 VRB03KT P6SM FEW080
From batch tds/tafs/production/2022/9/30/h06_m59_tafs.cache.xml
Issued (28 minutes ago)
Forecasts TAF CYYF 300640Z 3007/3019 VRB03KT P6SM FEW080
BECMG 3016/3018 36008KT RMK NXT FCST BY 301300Z
TAF CYTH 300640Z 3007/3019 04010KT P6SM FEW110
From batch tds/tafs/production/2022/9/30/h06_m59_tafs.cache.xml
Issued (28 minutes ago)
Forecasts TAF CYTH 300640Z 3007/3019 04010KT P6SM FEW110
BECMG 3015/3017 VRB03KT RMK NXT FCST BY 301300Z
talk